Time;durP1;ratioP1;P1;durP2;ratioP2;P2;SDS_P1;SDS_P2;PMS_P1;PMS_P2;Temp;Humidity;BMP_temperature;BMP_pressure;BME280_temperature;BME280_humidity;BME280_pressure;Samples;Min_cycle;Max_cycle;Signal;HPM_P1;HPM_P2
2022/07/30 00:00:28;;;;;;;5.87;5.37;;;;;;;17.16;100.00;97006.38;5003177;28;20293;-69
2022/07/30 00:02:58;;;;;;;5.97;5.57;;;;;;;17.24;100.00;97008.75;5004731;28;20879;-68
2022/07/30 00:05:26;;;;;;;5.50;5.20;;;;;;;17.32;100.00;97008.41;5004761;28;20208;-68
2022/07/30 00:07:56;;;;;;;6.13;5.80;;;;;;;17.26;100.00;97000.47;5001396;28;20220;-68
2022/07/30 00:10:25;;;;;;;5.80;5.50;;;;;;;17.27;100.00;97000.25;4963128;28;20217;-69
2022/07/30 00:12:59;;;;;;;5.47;5.17;;;;;;;17.23;100.00;97000.94;4971441;28;20205;-66
2022/07/30 00:15:33;;;;;;;6.13;5.73;;;;;;;17.19;100.00;96993.38;4984884;28;20314;-66
2022/07/30 00:18:03;;;;;;;6.50;6.00;;;;;;;17.19;100.00;96993.38;4998167;28;20775;-69
2022/07/30 00:20:32;;;;;;;5.70;5.17;;;;;;;17.17;100.00;97000.00;5003202;28;20456;-69
2022/07/30 00:23:03;;;;;;;5.70;5.40;;;;;;;17.21;100.00;96996.63;4985442;28;20236;-66
2022/07/30 00:25:31;;;;;;;6.20;5.80;;;;;;;17.13;100.00;96994.31;5006234;28;20240;-67
2022/07/30 00:28:00;;;;;;;6.20;5.80;;;;;;;17.14;100.00;96987.91;4957573;28;20287;-66
2022/07/30 00:30:28;;;;;;;6.23;5.63;;;;;;;17.04;100.00;96990.31;5006110;28;20693;-69
2022/07/30 00:32:56;;;;;;;6.47;6.07;;;;;;;17.06;100.00;96991.72;5001090;28;20555;-66
2022/07/30 00:35:29;;;;;;;6.57;6.10;;;;;;;17.07;100.00;96982.66;5001485;28;20283;-68
2022/07/30 00:37:57;;;;;;;6.50;6.10;;;;;;;16.87;100.00;96969.56;4983891;28;20224;-66
2022/07/30 00:40:25;;;;;;;6.47;6.07;;;;;;;16.77;100.00;96978.13;5004579;28;20240;-68
2022/07/30 00:42:57;;;;;;;6.90;6.37;;;;;;;16.75;100.00;96980.22;4972612;28;20258;-66
2022/07/30 00:45:30;;;;;;;6.20;5.80;;;;;;;16.73;100.00;96976.97;4999648;28;20200;-68
2022/07/30 00:48:00;;;;;;;6.47;6.07;;;;;;;16.77;100.00;96983.47;4997460;28;21113;-66
2022/07/30 00:50:31;;;;;;;7.10;6.40;;;;;;;16.72;100.00;96983.34;4998417;28;20209;-68
2022/07/30 00:52:59;;;;;;;7.20;6.70;;;;;;;16.73;100.00;96982.31;4982796;28;20205;-67
2022/07/30 00:55:27;;;;;;;6.67;6.27;;;;;;;16.72;100.00;96979.88;4999516;28;20305;-68
2022/07/30 00:57:55;;;;;;;6.50;6.10;;;;;;;16.68;100.00;96992.88;4998965;28;20204;-66
2022/07/30 01:00:23;;;;;;;6.37;5.97;;;;;;;16.71;100.00;96988.94;4956596;28;20332;-67
2022/07/30 01:02:51;;;;;;;6.13;5.60;;;;;;;16.61;100.00;96995.63;5000056;28;20215;-66
2022/07/30 01:05:20;;;;;;;7.00;6.40;;;;;;;16.64;100.00;96989.03;4997113;28;20926;-68
2022/07/30 01:07:50;;;;;;;7.23;6.83;;;;;;;16.67;100.00;96990.41;5002183;28;20239;-66
2022/07/30 01:10:18;;;;;;;6.67;6.07;;;;;;;16.60;100.00;96985.19;4985835;28;20479;-68
2022/07/30 01:12:54;;;;;;;6.97;6.40;;;;;;;16.57;100.00;96981.09;5000708;28;20232;-67
2022/07/30 01:15:22;;;;;;;6.73;6.33;;;;;;;16.61;100.00;96984.13;4948798;28;20224;-69
2022/07/30 01:17:51;;;;;;;6.17;5.83;;;;;;;16.58;100.00;96979.25;4999326;28;20300;-66
2022/07/30 01:20:24;;;;;;;6.93;6.43;;;;;;;16.55;100.00;96977.03;4998474;28;20298;-66
2022/07/30 01:22:58;;;;;;;6.80;6.30;;;;;;;16.59;100.00;96980.88;4997584;28;20737;-67
2022/07/30 01:25:46;;;;;;;6.37;5.97;;;;;;;16.58;100.00;96984.59;4982209;28;20448;-68
2022/07/30 01:28:17;;;;;;;6.10;5.70;;;;;;;16.49;100.00;96984.94;4999837;28;20207;-66
2022/07/30 01:30:45;;;;;;;6.80;6.40;;;;;;;16.49;100.00;96989.44;4957082;28;20212;-68
2022/07/30 01:33:17;;;;;;;6.57;6.17;;;;;;;16.52;100.00;96991.66;4994800;28;20544;-66
2022/07/30 01:36:00;;;;;;;7.07;6.67;;;;;;;16.40;100.00;96994.28;5005669;28;20803;-66
2022/07/30 01:38:30;;;;;;;6.53;6.13;;;;;;;16.37;100.00;96983.25;4996915;28;20508;-69
2022/07/30 01:41:03;;;;;;;7.30;6.80;;;;;;;16.35;100.00;96986.97;4987474;28;20215;-68
2022/07/30 01:43:33;;;;;;;6.63;6.23;;;;;;;16.31;100.00;96983.09;4999298;28;20541;-68
2022/07/30 01:46:11;;;;;;;7.47;6.53;;;;;;;16.22;100.00;96988.97;4954281;28;20213;-68
2022/07/30 01:48:41;;;;;;;6.77;6.37;;;;;;;16.29;100.00;96985.19;4999620;28;20235;-66
2022/07/30 01:51:10;;;;;;;6.53;6.13;;;;;;;16.28;100.00;96994.22;5000740;28;20247;-66
2022/07/30 01:53:40;;;;;;;6.80;6.40;;;;;;;16.22;100.00;96994.31;5002512;28;20521;-68
2022/07/30 01:56:12;;;;;;;8.17;7.57;;;;;;;16.20;100.00;96992.69;4980827;28;20212;-66
2022/07/30 01:58:44;;;;;;;8.70;7.97;;;;;;;16.08;100.00;96983.78;4999461;28;20407;-67
2022/07/30 02:01:12;;;;;;;8.80;8.23;;;;;;;16.13;100.00;96986.63;4952151;28;20708;-66
2022/07/30 02:03:40;;;;;;;7.90;7.40;;;;;;;16.03;100.00;96989.81;4997771;28;20417;-66
2022/07/30 02:06:11;;;;;;;6.97;6.57;;;;;;;15.99;100.00;96988.63;5000483;28;20209;-67
2022/07/30 02:14:55;;;;;;;6.67;6.27;;;;;;;15.91;100.00;96975.59;5002368;28;20228;-66
2022/07/30 02:17:26;;;;;;;7.27;6.87;;;;;;;15.98;100.00;96968.28;4950721;28;20759;-69
2022/07/30 02:20:02;;;;;;;6.97;6.47;;;;;;;16.05;100.00;96962.84;4999420;28;20214;-68
2022/07/30 02:22:38;;;;;;;7.10;6.60;;;;;;;16.01;100.00;96967.84;4956199;28;20414;-68
2022/07/30 02:25:09;;;;;;;7.87;7.17;;;;;;;15.96;100.00;96974.88;5003848;28;20266;-68
2022/07/30 02:27:40;;;;;;;8.80;8.17;;;;;;;16.00;100.00;96981.41;4972925;28;20546;-68
2022/07/30 02:30:09;;;;;;;8.73;8.03;;;;;;;15.99;100.00;96985.13;4997263;28;20267;-66
2022/07/30 02:32:39;;;;;;;8.90;8.10;;;;;;;16.04;100.00;96982.59;4987440;28;21054;-68
2022/07/30 02:35:15;;;;;;;8.87;8.13;;;;;;;15.98;100.00;96981.66;4995230;28;20698;-66
2022/07/30 02:37:49;;;;;;;9.77;9.07;;;;;;;15.99;100.00;96980.63;4981029;28;20299;-69
2022/07/30 02:40:21;;;;;;;9.10;8.27;;;;;;;15.88;100.00;96978.66;5000188;28;20204;-66
2022/07/30 02:42:53;;;;;;;8.50;7.83;;;;;;;15.85;100.00;96985.25;5001439;28;20665;-68
2022/07/30 02:45:23;;;;;;;8.30;7.70;;;;;;;15.79;100.00;96978.16;4968829;28;20211;-67
2022/07/30 02:47:54;;;;;;;8.40;7.87;;;;;;;15.66;100.00;96980.94;4979777;28;20238;-69
2022/07/30 02:50:40;;;;;;;8.13;7.43;;;;;;;15.63;100.00;96980.34;5005613;28;20212;-65
2022/07/30 02:53:11;;;;;;;7.80;7.20;;;;;;;15.45;100.00;96986.47;4968652;28;20296;-67
2022/07/30 02:55:41;;;;;;;7.77;7.20;;;;;;;15.53;100.00;96985.38;4980136;28;20824;-66
2022/07/30 02:58:11;;;;;;;8.10;7.60;;;;;;;15.56;100.00;96979.59;4965031;28;20202;-68
2022/07/30 03:00:40;;;;;;;8.20;7.57;;;;;;;15.50;100.00;96983.16;4977401;28;20525;-66
2022/07/30 03:03:09;;;;;;;8.30;7.80;;;;;;;15.38;100.00;96992.94;4977023;28;20205;-67
2022/07/30 03:05:46;;;;;;;8.60;8.00;;;;;;;15.41;100.00;96971.13;4941256;28;20734;-66
2022/07/30 03:08:21;;;;;;;8.17;7.40;;;;;;;15.46;100.00;96987.31;4985468;28;20209;-67
2022/07/30 03:10:51;;;;;;;7.40;6.90;;;;;;;15.42;100.00;96988.78;4961459;28;20415;-67
2022/07/30 03:13:22;;;;;;;7.40;7.00;;;;;;;15.47;100.00;96991.59;4980509;28;20225;-68
2022/07/30 03:15:51;;;;;;;7.70;7.30;;;;;;;15.46;100.00;96984.63;4981596;28;20255;-68
2022/07/30 03:18:20;;;;;;;8.83;8.23;;;;;;;15.46;100.00;96981.97;4982477;28;20676;-67
2022/07/30 03:20:51;;;;;;;9.10;8.50;;;;;;;15.28;100.00;96986.22;4960582;28;20236;-66
2022/07/30 03:23:20;;;;;;;9.30;8.40;;;;;;;15.14;100.00;96990.84;4921648;28;20224;-67
2022/07/30 03:25:54;;;;;;;7.87;7.37;;;;;;;15.09;100.00;96987.22;4962394;28;20201;-67
2022/07/30 03:28:31;;;;;;;7.33;6.90;;;;;;;15.08;100.00;96982.91;4977739;28;20725;-67
2022/07/30 03:31:01;;;;;;;7.53;6.97;;;;;;;15.03;100.00;96972.88;4976934;28;20646;-66
2022/07/30 03:33:30;;;;;;;7.63;7.13;;;;;;;14.92;100.00;96971.72;4978882;28;20233;-66
2022/07/30 03:36:12;;;;;;;8.03;7.50;;;;;;;15.03;100.00;96976.38;4934978;28;20232;-65
2022/07/30 03:38:44;;;;;;;8.47;7.87;;;;;;;15.07;100.00;96982.09;4976547;28;20750;-65
2022/07/30 03:41:12;;;;;;;7.57;7.17;;;;;;;15.03;100.00;96984.41;4962682;28;20832;-65
2022/07/30 03:43:48;;;;;;;8.63;8.07;;;;;;;15.00;100.00;96990.16;4978889;28;20839;-65
2022/07/30 03:46:17;;;;;;;8.70;8.10;;;;;;;15.15;100.00;96991.69;4976266;28;20419;-67
2022/07/30 03:48:49;;;;;;;9.93;9.13;;;;;;;15.23;100.00;96988.72;4976947;28;20240;-67
2022/07/30 03:51:17;;;;;;;11.80;11.00;;;;;;;15.32;100.00;97006.09;4953279;28;20248;-67
2022/07/30 03:53:45;;;;;;;14.77;13.67;;;;;;;15.38;100.00;97001.75;4938798;28;20289;-68
2022/07/30 03:56:17;;;;;;;14.50;13.30;;;;;;;15.39;100.00;97007.91;4976010;28;20232;-67
2022/07/30 03:58:56;;;;;;;14.70;13.57;;;;;;;15.41;100.00;97005.84;4966752;28;20200;-68
2022/07/30 04:01:25;;;;;;;15.27;13.97;;;;;;;15.53;100.00;97000.56;4984890;28;20219;-69
2022/07/30 04:03:57;;;;;;;15.10;14.00;;;;;;;15.54;100.00;96996.91;4986134;28;20350;-67
2022/07/30 04:06:28;;;;;;;15.97;14.67;;;;;;;15.52;100.00;97005.13;4963232;28;20920;-68
2022/07/30 04:09:01;;;;;;;15.83;14.53;;;;;;;15.55;100.00;97004.66;4943952;28;20287;-66
2022/07/30 04:11:29;;;;;;;15.40;14.20;;;;;;;15.53;100.00;97000.56;4982792;28;20987;-68
2022/07/30 04:14:10;;;;;;;17.30;15.80;;;;;;;15.58;100.00;97001.56;4971255;28;20239;-65
2022/07/30 04:16:52;;;;;;;16.20;14.90;;;;;;;15.66;100.00;97010.31;4985121;28;20313;-66
2022/07/30 04:19:27;;;;;;;15.70;14.50;;;;;;;15.80;100.00;97009.16;4933511;28;20208;-65
2022/07/30 04:22:06;;;;;;;17.73;16.33;;;;;;;15.80;100.00;97006.50;4955029;28;20236;-64
2022/07/30 04:24:35;;;;;;;17.10;15.67;;;;;;;15.86;100.00;97010.09;4928237;28;20236;-67
2022/07/30 04:27:07;;;;;;;17.10;15.87;;;;;;;15.83;100.00;97015.91;4980566;28;20209;-67
2022/07/30 04:29:42;;;;;;;18.57;16.97;;;;;;;15.87;100.00;97011.75;4921269;28;20279;-67
2022/07/30 04:32:19;;;;;;;17.33;16.03;;;;;;;15.93;100.00;97010.91;4961673;28;20220;-68
2022/07/30 04:34:51;;;;;;;16.77;15.27;;;;;;;15.92;100.00;97014.63;4966044;28;20832;-68
2022/07/30 04:37:26;;;;;;;16.90;15.60;;;;;;;15.97;100.00;97016.59;4968024;28;20233;-65
2022/07/30 04:39:56;;;;;;;18.33;16.93;;;;;;;15.88;100.00;97019.56;4964437;28;20213;-68
2022/07/30 04:42:25;;;;;;;15.77;14.57;;;;;;;15.93;100.00;97020.75;4968250;28;20216;-66
2022/07/30 04:45:01;;;;;;;14.17;12.97;;;;;;;15.98;100.00;97028.91;4951059;28;20315;-68
2022/07/30 04:47:29;;;;;;;14.50;13.30;;;;;;;15.96;100.00;97022.97;4920372;28;20206;-65
2022/07/30 04:50:01;;;;;;;15.60;14.40;;;;;;;15.93;100.00;97028.78;4984820;28;21046;-68
2022/07/30 04:52:29;;;;;;;14.17;13.17;;;;;;;15.94;100.00;97020.56;4970712;28;20237;-68
2022/07/30 04:55:04;;;;;;;14.33;13.17;;;;;;;15.96;100.00;97023.81;4965384;28;20239;-67
2022/07/30 04:57:36;;;;;;;15.13;14.00;;;;;;;15.97;100.00;97020.09;4939119;28;20239;-67
2022/07/30 05:00:10;;;;;;;14.63;13.53;;;;;;;15.87;100.00;97022.44;4946556;28;20204;-68
2022/07/30 05:02:41;;;;;;;15.23;13.83;;;;;;;15.91;100.00;97024.47;4956580;28;20220;-67
2022/07/30 05:05:11;;;;;;;15.83;14.63;;;;;;;16.06;100.00;97031.28;4965499;28;20287;-64
2022/07/30 05:07:46;;;;;;;14.60;13.40;;;;;;;15.99;100.00;97028.72;4970753;28;20698;-66
2022/07/30 05:10:15;;;;;;;14.90;13.57;;;;;;;15.93;100.00;97018.91;4961335;28;20212;-67
2022/07/30 05:12:47;;;;;;;14.53;13.43;;;;;;;15.89;100.00;97026.56;4973795;28;20315;-69
2022/07/30 05:15:18;;;;;;;12.80;11.77;;;;;;;15.81;100.00;97032.16;4949172;28;20248;-67
2022/07/30 05:17:49;;;;;;;14.33;13.23;;;;;;;15.88;100.00;97032.09;4985517;28;20244;-68
2022/07/30 05:20:20;;;;;;;15.63;14.43;;;;;;;15.85;100.00;97033.34;4983999;28;20220;-68
2022/07/30 05:22:48;;;;;;;14.50;13.37;;;;;;;15.95;100.00;97038.22;4985932;28;20213;-68
2022/07/30 05:25:18;;;;;;;13.80;12.70;;;;;;;16.05;100.00;97030.50;4965508;28;20233;-67
2022/07/30 05:27:46;;;;;;;14.27;13.17;;;;;;;15.98;100.00;97028.91;4966755;28;20209;-70
2022/07/30 05:30:14;;;;;;;14.80;13.50;;;;;;;16.17;100.00;97030.56;4941049;28;21008;-68
2022/07/30 05:32:44;;;;;;;15.87;14.40;;;;;;;15.93;100.00;97036.78;4985281;28;20607;-68
2022/07/30 05:35:14;;;;;;;16.03;14.73;;;;;;;16.15;100.00;97040.66;4971078;28;20793;-65
2022/07/30 05:37:42;;;;;;;14.43;13.33;;;;;;;16.17;100.00;97048.44;4984034;28;20320;-69
2022/07/30 05:40:16;;;;;;;15.53;14.13;;;;;;;16.22;100.00;97045.91;4961628;28;20296;-67
2022/07/30 05:42:45;;;;;;;14.77;13.67;;;;;;;16.17;100.00;97049.28;4966275;28;20220;-69
2022/07/30 05:45:13;;;;;;;14.93;13.83;;;;;;;16.23;100.00;97049.41;4948306;28;20610;-67
2022/07/30 05:47:42;;;;;;;16.10;14.93;;;;;;;16.10;100.00;97045.03;4981757;28;20213;-68
2022/07/30 05:50:23;;;;;;;16.17;14.97;;;;;;;16.10;100.00;97051.22;4974655;28;20340;-65
2022/07/30 05:52:51;;;;;;;16.67;15.37;;;;;;;16.00;100.00;97061.56;4985804;28;20342;-68
2022/07/30 05:55:20;;;;;;;17.70;16.20;;;;;;;16.04;100.00;97050.22;4961713;28;20229;-67
2022/07/30 05:57:48;;;;;;;17.07;15.67;;;;;;;16.26;100.00;97054.31;4982000;28;20320;-68
2022/07/30 06:00:18;;;;;;;17.87;16.40;;;;;;;16.40;100.00;97047.75;4923960;28;20654;-66
2022/07/30 06:02:46;;;;;;;17.60;16.20;;;;;;;16.55;100.00;97051.91;4980516;28;20240;-66
2022/07/30 06:05:14;;;;;;;17.10;15.70;;;;;;;16.60;100.00;97062.75;4982656;28;20372;-65
2022/07/30 06:07:44;;;;;;;17.60;16.20;;;;;;;16.62;100.00;97058.00;4964583;28;20299;-67
2022/07/30 06:10:16;;;;;;;17.80;16.40;;;;;;;16.64;100.00;97056.69;4980843;28;20240;-68
2022/07/30 06:12:47;;;;;;;17.43;16.03;;;;;;;16.58;100.00;97064.84;4971807;28;20661;-70
2022/07/30 06:15:24;;;;;;;16.47;15.17;;;;;;;16.50;100.00;97068.63;4973460;28;20267;-67
2022/07/30 06:17:58;;;;;;;16.27;14.97;;;;;;;16.64;100.00;97069.28;4922316;28;20237;-68
2022/07/30 06:20:32;;;;;;;16.67;15.23;;;;;;;16.51;100.00;97075.59;4988359;28;20213;-66
2022/07/30 06:23:07;;;;;;;17.33;15.93;;;;;;;16.58;100.00;97075.53;4967011;28;20684;-67
2022/07/30 06:25:44;;;;;;;16.93;15.47;;;;;;;16.79;100.00;97074.22;4988295;28;20424;-67
2022/07/30 06:28:12;;;;;;;17.03;15.67;;;;;;;16.81;100.00;97073.97;4956164;28;20555;-68
2022/07/30 06:31:01;;;;;;;16.57;15.13;;;;;;;17.01;100.00;97068.38;4973756;28;20241;-67
2022/07/30 06:33:37;;;;;;;15.93;14.60;;;;;;;17.26;100.00;97076.25;4932305;28;20249;-67
2022/07/30 06:36:11;;;;;;;17.17;15.87;;;;;;;17.40;100.00;97079.53;4978704;28;20901;-67
2022/07/30 06:38:42;;;;;;;16.23;14.73;;;;;;;17.31;100.00;97072.88;4936521;28;20440;-67
2022/07/30 06:41:24;;;;;;;17.47;16.00;;;;;;;17.53;100.00;97075.81;4969179;28;20298;-66
2022/07/30 06:43:58;;;;;;;16.40;15.10;;;;;;;17.49;100.00;97080.00;4962983;28;20229;-67
2022/07/30 06:46:29;;;;;;;15.23;14.07;;;;;;;17.67;100.00;97072.94;4971399;28;20636;-66
2022/07/30 06:49:03;;;;;;;15.03;13.83;;;;;;;17.77;100.00;97090.03;4987718;28;20304;-67
2022/07/30 06:54:28;;;;;;;14.47;13.37;;;;;;;18.11;100.00;97086.81;4945918;28;20380;-66
2022/07/30 06:57:06;;;;;;;16.37;14.97;;;;;;;18.03;100.00;97093.34;4983461;28;20870;-66
2022/07/30 06:59:47;;;;;;;16.53;15.13;;;;;;;18.12;100.00;97087.63;4979804;28;20251;-66
2022/07/30 07:02:32;;;;;;;15.97;14.77;;;;;;;18.01;100.00;97087.41;4974517;28;20701;-65
2022/07/30 07:05:12;;;;;;;14.47;13.43;;;;;;;18.14;100.00;97094.38;4983417;28;20563;-67
2022/07/30 07:07:46;;;;;;;15.27;14.17;;;;;;;18.10;100.00;97087.03;4983986;28;20209;-66
2022/07/30 07:10:31;;;;;;;14.13;13.10;;;;;;;18.21;100.00;97087.03;4941683;28;20412;-67
2022/07/30 07:13:05;;;;;;;15.20;13.90;;;;;;;18.34;100.00;97079.78;4984609;28;20765;-67
2022/07/30 07:15:34;;;;;;;14.90;13.53;;;;;;;18.68;100.00;97082.59;4987184;28;20747;-66
2022/07/30 07:18:12;;;;;;;13.60;12.60;;;;;;;18.81;100.00;97078.81;4973615;28;20729;-67
2022/07/30 07:20:45;;;;;;;13.17;12.07;;;;;;;18.77;100.00;97083.88;4965383;28;20286;-66
2022/07/30 07:23:19;;;;;;;13.73;12.63;;;;;;;18.73;100.00;97077.31;4982847;28;20211;-68
2022/07/30 07:26:10;;;;;;;12.37;11.37;;;;;;;18.86;100.00;97078.09;4982480;28;20256;-68
2022/07/30 07:28:49;;;;;;;12.57;11.57;;;;;;;18.61;100.00;97076.56;4985310;28;20883;-65
2022/07/30 07:31:21;;;;;;;12.80;11.80;;;;;;;18.59;100.00;97084.88;4986289;28;20213;-67
2022/07/30 07:34:17;;;;;;;12.47;11.57;;;;;;;18.58;100.00;97082.41;4984434;28;20733;-68
2022/07/30 07:37:05;;;;;;;11.77;10.87;;;;;;;18.80;100.00;97087.94;4982019;28;20546;-68
2022/07/30 07:40:05;;;;;;;12.80;11.90;;;;;;;18.97;100.00;97081.81;4945955;28;22592;-67
2022/07/30 07:46:01;;;;;;;11.43;10.63;;;;;;;19.69;100.00;97082.22;4984314;28;20590;-66
2022/07/30 07:48:39;;;;;;;12.90;12.00;;;;;;;20.26;100.00;97078.47;4971708;28;20209;-64
2022/07/30 07:51:24;;;;;;;12.13;11.07;;;;;;;20.46;100.00;97074.44;4987864;28;20236;-67
2022/07/30 07:54:22;;;;;;;10.93;10.23;;;;;;;20.84;100.00;97071.91;4986165;28;20247;-66
2022/07/30 07:57:11;;;;;;;10.63;9.93;;;;;;;20.50;100.00;97064.78;4944836;28;20451;-67
2022/07/30 08:00:09;;;;;;;9.80;9.10;;;;;;;20.31;100.00;97065.09;4981464;28;20311;-65
2022/07/30 08:02:58;;;;;;;10.50;9.70;;;;;;;20.20;100.00;97074.88;4966572;28;20205;-65
2022/07/30 08:06:11;;;;;;;11.10;10.30;;;;;;;20.20;100.00;97072.19;4985642;28;20228;-65
2022/07/30 08:12:47;;;;;;;8.43;7.83;;;;;;;20.15;100.00;97074.81;4943633;28;20984;-68
2022/07/30 08:15:55;;;;;;;7.17;6.67;;;;;;;20.61;100.00;97073.78;4988701;28;20247;-67
2022/07/30 08:19:09;;;;;;;7.90;7.30;;;;;;;20.38;100.00;97070.28;4966876;28;20282;-64
2022/07/30 08:22:11;;;;;;;7.40;6.80;;;;;;;19.67;100.00;97074.38;4982881;28;20224;-64
2022/07/30 08:25:29;;;;;;;7.03;6.63;;;;;;;20.00;100.00;97082.69;4985335;28;20488;-69
2022/07/30 08:28:44;;;;;;;6.80;6.30;;;;;;;19.88;100.00;97083.56;4987970;28;20255;-67
2022/07/30 08:31:58;;;;;;;6.63;6.00;;;;;;;19.71;100.00;97080.91;4986199;28;20227;-65
2022/07/30 08:34:59;;;;;;;7.20;6.70;;;;;;;20.18;100.00;97071.63;4969398;28;20232;-65
2022/07/30 08:37:51;;;;;;;5.83;5.53;;;;;;;20.02;100.00;97084.06;4985230;28;20319;-65
2022/07/30 08:40:48;;;;;;;6.63;6.23;;;;;;;20.27;100.00;97072.03;4951886;28;20613;-64
2022/07/30 08:43:46;;;;;;;6.30;5.90;;;;;;;20.24;100.00;97086.78;4980304;28;20266;-67
2022/07/30 08:47:04;;;;;;;6.43;6.03;;;;;;;20.82;100.00;97075.66;4937242;28;20224;-70
2022/07/30 08:50:16;;;;;;;6.70;6.30;;;;;;;20.69;100.00;97076.03;4987211;28;20204;-67
2022/07/30 08:53:24;;;;;;;5.47;5.17;;;;;;;21.39;100.00;97072.69;4983402;28;20816;-67
2022/07/30 08:56:24;;;;;;;6.33;5.93;;;;;;;21.59;100.00;97077.44;4980824;28;20293;-67
2022/07/30 08:59:25;;;;;;;5.93;5.63;;;;;;;21.84;100.00;97078.72;4981568;28;20779;-67
2022/07/30 09:02:42;;;;;;;5.70;5.30;;;;;;;21.35;100.00;97075.06;4944929;28;20457;-69
2022/07/30 09:05:53;;;;;;;5.13;4.83;;;;;;;22.13;100.00;97075.63;4987064;28;21441;-66
2022/07/30 09:08:56;;;;;;;5.80;5.40;;;;;;;22.34;100.00;97073.84;4984823;28;20259;-68
2022/07/30 09:12:08;;;;;;;6.17;5.77;;;;;;;21.63;100.00;97088.53;4985816;28;20228;-67
2022/07/30 09:15:13;;;;;;;6.03;5.63;;;;;;;21.87;100.00;97075.50;4988614;28;20235;-67
2022/07/30 09:18:15;;;;;;;5.73;5.40;;;;;;;22.34;100.00;97075.75;4941257;28;20234;-66
2022/07/30 09:21:23;;;;;;;4.97;4.67;;;;;;;22.45;100.00;97079.31;4983507;28;20571;-65
2022/07/30 09:24:28;;;;;;;4.87;4.60;;;;;;;22.78;100.00;97080.00;4981634;28;20239;-65
2022/07/30 09:27:36;;;;;;;5.40;5.00;;;;;;;22.43;100.00;97076.88;4982687;28;20516;-67
2022/07/30 09:30:38;;;;;;;5.77;5.17;;;;;;;22.77;100.00;97073.78;4982428;28;20989;-68
2022/07/30 09:34:00;;;;;;;5.50;5.10;;;;;;;22.66;100.00;97080.25;4941790;28;20259;-69
2022/07/30 09:37:05;;;;;;;5.23;4.93;;;;;;;22.40;100.00;97090.91;4985471;28;20231;-67
2022/07/30 09:40:25;;;;;;;5.17;4.87;;;;;;;21.88;100.00;97085.22;4988669;28;20231;-66
2022/07/30 09:43:29;;;;;;;5.63;5.13;;;;;;;21.63;100.00;97094.72;4980018;28;20491;-69
2022/07/30 09:46:16;;;;;;;5.70;5.23;;;;;;;21.90;100.00;97093.88;4982106;28;20311;-67
2022/07/30 09:49:20;;;;;;;5.07;4.87;;;;;;;22.04;100.00;97093.41;4950653;28;20216;-67
2022/07/30 09:52:55;;;;;;;5.00;4.80;;;;;;;22.23;100.00;97086.50;4983281;28;20248;-65
2022/07/30 09:55:40;;;;;;;5.40;5.00;;;;;;;22.72;100.00;97078.34;4991315;28;20422;-67
2022/07/30 09:58:24;;;;;;;4.60;4.40;;;;;;;22.84;100.00;97090.53;4982892;28;20791;-66
2022/07/30 10:01:01;;;;;;;4.60;4.17;;;;;;;22.64;96.84;97085.88;4988581;28;20216;-65
2022/07/30 10:03:47;;;;;;;4.80;4.40;;;;;;;22.78;98.85;97085.41;4989170;28;20225;-67
2022/07/30 10:06:40;;;;;;;5.03;4.83;;;;;;;23.11;98.14;97088.72;4945728;28;20525;-66
2022/07/30 10:09:41;;;;;;;5.43;4.93;;;;;;;22.39;100.00;97086.56;4985227;28;20735;-68
2022/07/30 10:12:36;;;;;;;6.03;5.60;;;;;;;22.36;100.00;97092.50;4988008;28;20386;-67
2022/07/30 10:15:38;;;;;;;5.10;4.77;;;;;;;22.19;100.00;97090.81;4988148;28;20221;-65
2022/07/30 10:18:26;;;;;;;5.33;5.03;;;;;;;22.51;100.00;97087.19;4986716;28;20224;-69
2022/07/30 10:21:27;;;;;;;8.43;4.77;;;;;;;22.80;100.00;97088.66;4947523;28;20657;-69
2022/07/30 10:24:25;;;;;;;4.90;4.60;;;;;;;22.46;100.00;97089.88;4981904;28;20896;-68
2022/07/30 10:27:26;;;;;;;4.47;4.17;;;;;;;22.43;100.00;97095.75;4988434;28;20208;-67
2022/07/30 10:30:07;;;;;;;8.10;4.07;;;;;;;22.04;100.00;97088.84;4985082;28;20220;-66
2022/07/30 10:33:11;;;;;;;4.53;4.13;;;;;;;21.86;100.00;97078.44;4989388;28;20402;-66
2022/07/30 10:36:09;;;;;;;5.10;4.70;;;;;;;21.89;100.00;97081.44;4964904;28;20208;-64
2022/07/30 10:39:17;;;;;;;8.23;4.47;;;;;;;21.93;100.00;97087.94;4986683;28;20329;-67
2022/07/30 10:42:29;;;;;;;4.73;4.37;;;;;;;22.00;100.00;97082.34;4984229;28;20988;-66
2022/07/30 10:45:26;;;;;;;4.50;4.20;;;;;;;22.18;100.00;97085.66;4983599;28;20264;-69
2022/07/30 10:48:07;;;;;;;4.37;4.07;;;;;;;22.68;97.93;97078.09;4985972;28;20286;-66
2022/07/30 10:51:09;;;;;;;4.17;3.87;;;;;;;23.16;92.81;97074.41;4990386;28;20208;-68
2022/07/30 11:56:25;;;;;;;3.00;2.53;;;;;;;23.87;66.37;97055.78;4944416;28;20733;-68
2022/07/30 11:59:31;;;;;;;2.43;2.30;;;;;;;24.28;66.74;97058.38;4987352;28;20349;-65
2022/07/30 12:02:36;;;;;;;6.77;2.27;;;;;;;24.10;60.82;97065.22;4986297;28;20243;-65
2022/07/30 12:05:42;;;;;;;2.87;2.77;;;;;;;23.82;66.15;97062.00;4967496;28;20263;-64
2022/07/30 12:09:07;;;;;;;3.13;2.63;;;;;;;24.73;62.11;97069.28;4984035;28;20728;-66
2022/07/30 12:12:17;;;;;;;2.53;2.33;;;;;;;24.62;55.90;97071.22;4940495;28;20586;-69
2022/07/30 12:15:35;;;;;;;2.37;2.27;;;;;;;24.71;58.57;97074.16;4982193;28;21024;-67
2022/07/30 12:18:47;;;;;;;2.37;2.03;;;;;;;25.00;54.42;97063.50;4986819;28;20709;-65
2022/07/30 12:22:01;;;;;;;2.63;2.43;;;;;;;25.43;49.76;97075.66;4971409;28;20753;-67
2022/07/30 12:25:17;;;;;;;2.00;1.90;;;;;;;25.63;50.56;97066.56;4988494;28;20289;-69
2022/07/30 12:28:42;;;;;;;2.37;2.27;;;;;;;25.86;48.36;97078.56;4941862;28;20452;-67
2022/07/30 12:31:56;;;;;;;2.20;2.10;;;;;;;25.47;47.32;97060.47;4982603;28;20294;-67
2022/07/30 12:35:16;;;;;;;2.57;2.20;;;;;;;24.99;49.70;97074.59;4982776;28;20516;-68
2022/07/30 12:38:23;;;;;;;2.83;2.67;;;;;;;25.51;52.19;97068.81;4972192;28;20363;-67
2022/07/30 12:41:47;;;;;;;2.47;2.27;;;;;;;26.36;48.83;97072.06;4987421;28;20212;-65
2022/07/30 12:44:57;;;;;;;2.80;2.60;;;;;;;26.29;48.63;97075.13;4944430;28;20547;-67
2022/07/30 12:48:04;;;;;;;3.20;2.43;;;;;;;26.57;46.47;97069.13;4982088;28;20580;-67
2022/07/30 12:51:32;;;;;;;2.33;2.23;;;;;;;26.41;47.38;97068.50;4986237;28;20211;-67
2022/07/30 13:40:13;;;;;;;3.67;3.27;;;;;;;32.57;39.25;97061.09;4975921;28;20279;-64
2022/07/30 13:43:22;;;;;;;2.93;2.73;;;;;;;32.39;40.58;97068.63;4984154;28;20236;-70
2022/07/30 13:46:51;;;;;;;5.90;3.63;;;;;;;33.33;35.86;97062.00;4946870;28;20219;-67
2022/07/30 13:49:56;;;;;;;2.57;2.40;;;;;;;32.56;36.44;97068.53;4984946;28;20710;-67
2022/07/30 13:53:08;;;;;;;2.60;2.50;;;;;;;33.37;34.33;97058.63;4981587;28;20216;-67
2022/07/30 14:14:46;;;;;;;3.20;3.00;;;;;;;35.19;29.02;97071.56;4922669;28;21404;-64
2022/07/30 14:17:37;;;;;;;4.43;2.83;;;;;;;31.71;32.09;97057.22;4963440;28;20217;-66
2022/07/30 14:20:34;;;;;;;2.97;2.83;;;;;;;29.06;37.03;97052.03;4964069;28;20427;-68
2022/07/30 14:23:29;;;;;;;4.40;2.80;;;;;;;29.05;39.04;97053.16;4945739;28;20211;-66
2022/07/30 14:26:11;;;;;;;3.57;2.70;;;;;;;27.52;42.26;97057.44;4982082;28;20316;-65
2022/07/30 14:28:50;;;;;;;2.53;2.43;;;;;;;25.97;46.75;97070.31;4967396;28;20540;-64
2022/07/30 14:31:19;;;;;;;2.90;2.70;;;;;;;25.31;52.91;97070.59;4946507;28;20212;-67
2022/07/30 14:33:51;;;;;;;2.77;2.67;;;;;;;24.55;53.54;97079.66;4985699;28;20232;-65
2022/07/30 14:36:22;;;;;;;2.90;2.70;;;;;;;24.12;53.78;97076.56;4977576;28;20294;-66
2022/07/30 14:38:56;;;;;;;3.73;3.40;;;;;;;23.79;49.92;97082.25;4972485;28;20599;-68
2022/07/30 14:41:41;;;;;;;2.50;2.40;;;;;;;23.72;48.97;97089.06;4982433;28;21070;-66
2022/07/30 14:44:45;;;;;;;2.60;2.47;;;;;;;23.76;49.27;97085.50;4967197;28;20236;-62
2022/07/30 14:47:55;;;;;;;2.63;2.40;;;;;;;24.12;47.00;97087.41;4944344;28;20207;-65
2022/07/30 14:50:36;;;;;;;3.23;2.80;;;;;;;24.59;46.29;97084.53;4985916;28;20201;-64
2022/07/30 14:53:43;;;;;;;2.97;2.67;;;;;;;25.92;40.98;97084.72;4972527;28;20234;-63
2022/07/30 14:56:24;;;;;;;2.77;2.57;;;;;;;26.14;41.15;97080.72;4986948;28;20212;-64